Thursday, September 20, 2018, 10:08 PM EDT
Back to Local

KBGM, Binghamton Regional Airport

Location: Johnson City, NY, United States Lat: 42.2
Local Time: 10:08 PM EDT ( 2:08 GMT) Lon: -75.983
Time Zone: US/Eastern Elev: 1637 ft

Show me the last for .
Show Decoded

2018-09-20 21:53 METAR KBGM 210153Z 15009KT 10SM OVC008 17/16 A3020 RMK AO2 SLP227 T01670156 =
2018-09-20 21:10 METAR KBGM 210110Z 15009KT 10SM BKN008 17/16 A3019 RMK AO2 T01670156 =
2018-09-20 20:53 METAR KBGM 210053Z 14010KT 10SM FEW008 17/16 A3019 RMK AO2 SLP221 T01670156 =
2018-09-20 19:53 METAR KBGM 202353Z 14009KT 10SM SCT034 18/16 A3018 RMK AO2 SLP218 60000
                 T01780161 10217 20178 55003 =
2018-09-20 18:53 METAR KBGM 202253Z 15003KT 10SM CLR 19/16 A3017 RMK AO2 SLP217 T01890156 =
2018-09-20 17:53 METAR KBGM 202153Z 17004KT 10SM CLR 20/16 A3018 RMK AO2 SLP218 T02000156 =
2018-09-20 16:53 METAR KBGM 202053Z 19005KT 10SM FEW035 21/15 A3019 RMK AO2 SLP219 60000
                 T02060150 55003 =
2018-09-20 16:35 METAR KBGM 202035Z 22005KT 10SM SCT028 SCT033 21/15 A3018 RMK AO2 T02110150 =
2018-09-20 15:53 METAR KBGM 201953Z 22005KT 10SM BKN028 21/15 A3018 RMK AO2 SLP218 T02060150 =
2018-09-20 15:13 METAR KBGM 201913Z VRB04KT 10SM BKN026 21/14 A3019 RMK AO2 T02060144 =
2018-09-20 15:06 METAR KBGM 201906Z AUTO VRB03KT 10SM SCT026 21/14 A3019 RMK AO2 T02060144 =
2018-09-20 14:53 METAR KBGM 201853Z 25005KT 10SM BKN026 21/14 A3019 RMK AO2 RAB26E38 SLP221 P0000
                 T02060144 =
2018-09-20 13:53 METAR KBGM 201753Z 16007KT 10SM FEW022 19/14 A3019 RMK AO2 SLP222 T01890139
                 10194 20106 58015 =
2018-09-20 12:53 METAR KBGM 201653Z VRB05KT 10SM FEW016 18/13 A3022 RMK AO2 SLP233 T01780133 =
2018-09-20 12:04 METAR KBGM 201604Z 09004KT 10SM SCT012 16/13 A3024 RMK AO2 T01610128 =
2018-09-20 11:53 METAR KBGM 201553Z 10003KT 10SM BKN010 16/13 A3023 RMK AO2 SLP237 T01560128 =
2018-09-20 11:49 METAR KBGM 201549Z 00000KT 10SM SCT010 16/13 A3023 RMK AO2 =
2018-09-20 11:03 METAR KBGM 201503Z 13005KT 10SM OVC006 13/12 A3023 RMK AO2 CIG 003V008 T01330122
                 =
2018-09-20 10:53 METAR KBGM 201453Z VRB03KT 3SM OVC004 14/13 A3024 RMK AO2 SFC VIS 10 CIG 003V008
                 SLP239 T01390128 51010 =
2018-09-20 10:45 METAR KBGM 201445Z 11004KT 3SM OVC004 13/12 A3024 RMK AO2 SFC VIS 10 CIG 003V007
                 T01330122 =
2018-09-20 10:34 METAR KBGM 201434Z 14005KT 2SM OVC003 13/12 A3024 RMK AO2 SFC VIS 10 T01280122 =
2018-09-20 10:10 METAR KBGM 201410Z 00000KT 1 1/2SM OVC002 12/12 A3024 RMK AO2 SFC VIS 9
                 T01220122 =
2018-09-20 10:03 METAR KBGM 201403Z 00000KT 3SM BR OVC002 12/12 A3024 RMK AO2 T01220122 =
2018-09-20 09:53 METAR KBGM 201353Z 00000KT 1 1/2SM BR OVC002 12/12 A3024 RMK AO2 SLP240
                 T01170117 =
2018-09-20 09:42 METAR KBGM 201342Z 15004KT 3/4SM BR VV002 12/12 A3023 RMK AO2 T01170117 =
2018-09-20 08:53 METAR KBGM 201253Z 00000KT 1/4SM FG VV002 11/11 A3022 RMK AO2 SLP235 T01110111 =
2018-09-20 07:53 METAR KBGM 201153Z 05003KT 1/4SM FG VV002 11/11 A3021 RMK AO2 SLP230 T01060106
                 10117 20089 53024 =
2018-09-20 07:00 METAR KBGM 201100Z 25003KT 1/4SM FG VV002 09/09 A3018 RMK AO2 T00940094 =
2018-09-20 06:53 METAR KBGM 201053Z 28004KT 1 1/4SM BR OVC003 10/09 A3018 RMK AO2 SLP220
                 T01000094 =
2018-09-20 06:45 METAR KBGM 201045Z 29003KT 1SM BR VV003 10/10 A3018 RMK AO2 T01000100 =
2018-09-20 06:19 METAR KBGM 201019Z 00000KT 1/4SM FG VV003 09/09 A3017 RMK AO2 T00940094 =
2018-09-20 05:53 METAR KBGM 200953Z AUTO 00000KT M1/4SM FG VV001 09/09 A3015 RMK AO2 SLP210
                 T00890089 =
2018-09-20 05:38 METAR KBGM 200938Z AUTO 00000KT 1/4SM FG VV001 09/09 A3014 RMK AO2 T00890089 =
2018-09-20 05:28 METAR KBGM 200928Z AUTO 00000KT 3/4SM BR VV001 09/09 A3014 RMK AO2 T00890089 =
2018-09-20 05:25 METAR KBGM 200925Z AUTO 00000KT 1 1/2SM BR BKN002 09/09 A3014 RMK AO2 VIS 1/2V5
                 T00890089 =
2018-09-20 05:20 METAR KBGM 200920Z AUTO 17003KT 3SM BR SCT002 09/09 A3013 RMK AO2 T00890089 =
2018-09-20 05:14 METAR KBGM 200914Z AUTO 00000KT 1 1/4SM BR FEW002 09/09 A3013 RMK AO2 VIS 1/2V4
                 T00940094 =
2018-09-20 05:03 METAR KBGM 200903Z AUTO 00000KT 3/4SM BR VV002 09/09 A3013 RMK AO2 T00940089 =
2018-09-20 05:00 METAR KBGM 200900Z AUTO 27004KT 1 1/4SM BR FEW001 10/09 A3014 RMK AO2 T01000094
                 =
2018-09-20 04:53 METAR KBGM 200853Z AUTO 00000KT 10SM CLR 11/10 A3014 RMK AO2 SLP202 T01060100
                 55001 =
2018-09-20 04:44 METAR KBGM 200844Z AUTO 00000KT 10SM FEW002 10/10 A3013 RMK AO2 T01000100 =
2018-09-20 04:37 METAR KBGM 200837Z AUTO 00000KT 2 1/2SM BR FEW002 10/09 A3013 RMK AO2 T01000094
                 =
2018-09-20 04:29 METAR KBGM 200829Z AUTO 00000KT 1SM BR VV002 11/10 A3013 RMK AO2 T01060100 =
2018-09-20 04:25 METAR KBGM 200825Z AUTO 00000KT 2 1/2SM BR FEW002 10/09 A3012 RMK AO2 T01000094
                 =
2018-09-20 03:53 METAR KBGM 200753Z AUTO 07003KT 10SM CLR 11/10 A3013 RMK AO2 SLP198 T01060100 =
2018-09-20 02:53 METAR KBGM 200653Z AUTO 36004KT 10SM CLR 12/11 A3013 RMK AO2 SLP198 T01170106 =
2018-09-20 01:53 METAR KBGM 200553Z AUTO 33003KT 10SM CLR 12/11 A3014 RMK AO2 SLP201 T01170111
                 10156 20117 51003 =
2018-09-20 00:53 METAR KBGM 200453Z AUTO 00000KT 10SM CLR 12/11 A3014 RMK AO2 SLP201 T01220111
                 402280122 =
2018-09-19 23:53 METAR KBGM 200353Z 01004KT 10SM CLR 12/11 A3013 RMK AO2 SLP200 T01220111 =
2018-09-19 22:53 METAR KBGM 200253Z 36003KT 10SM CLR 13/12 A3013 RMK AO2 SLP198 T01330117 50011 =

Support USWX by starting your Amazon purchase here.